sensor_id;sensor_type;location;lat;lon;timestamp;P1;P2;P0
58740;PMS7003;44512;53.046;18.604;2024-03-08T00:08:10;32;26;17
58740;PMS7003;44512;53.046;18.604;2024-03-08T00:18:39;44;34;24
58740;PMS7003;44512;53.046;18.604;2024-03-08T00:29:07;34;25;17
58740;PMS7003;44512;53.046;18.604;2024-03-08T00:39:36;39;31;20
58740;PMS7003;44512;53.046;18.604;2024-03-08T00:50:04;35;27;20
58740;PMS7003;44512;53.046;18.604;2024-03-08T01:00:32;33;27;19
58740;PMS7003;44512;53.046;18.604;2024-03-08T01:11:01;39;32;22
58740;PMS7003;44512;53.046;18.604;2024-03-08T01:21:29;35;29;21
58740;PMS7003;44512;53.046;18.604;2024-03-08T01:31:58;38;30;23
58740;PMS7003;44512;53.046;18.604;2024-03-08T01:42:26;39;31;22
58740;PMS7003;44512;53.046;18.604;2024-03-08T01:52:55;40;28;20
58740;PMS7003;44512;53.046;18.604;2024-03-08T02:03:24;41;32;21
58740;PMS7003;44512;53.046;18.604;2024-03-08T02:13:52;32;25;18
58740;PMS7003;44512;53.046;18.604;2024-03-08T02:24:20;37;30;20
58740;PMS7003;44512;53.046;18.604;2024-03-08T02:34:49;34;28;20
58740;PMS7003;44512;53.046;18.604;2024-03-08T02:45:17;40;30;21
58740;PMS7003;44512;53.046;18.604;2024-03-08T02:55:46;34;27;20
58740;PMS7003;44512;53.046;18.604;2024-03-08T03:06:14;33;27;20
58740;PMS7003;44512;53.046;18.604;2024-03-08T03:16:42;33;26;19
58740;PMS7003;44512;53.046;18.604;2024-03-08T03:27:11;33;26;16
58740;PMS7003;44512;53.046;18.604;2024-03-08T03:37:39;32;26;19
58740;PMS7003;44512;53.046;18.604;2024-03-08T03:48:08;40;30;20
58740;PMS7003;44512;53.046;18.604;2024-03-08T03:58:36;35;31;21
58740;PMS7003;44512;53.046;18.604;2024-03-08T04:09:05;40;30;21
58740;PMS7003;44512;53.046;18.604;2024-03-08T04:19:33;40;29;21
58740;PMS7003;44512;53.046;18.604;2024-03-08T04:30:05;37;30;21
58740;PMS7003;44512;53.046;18.604;2024-03-08T04:40:30;41;29;21
58740;PMS7003;44512;53.046;18.604;2024-03-08T04:50:59;25;18;11
58740;PMS7003;44512;53.046;18.604;2024-03-08T05:01:27;23;14;7
58740;PMS7003;44512;53.046;18.604;2024-03-08T05:11:55;42;29;20
58740;PMS7003;44512;53.046;18.604;2024-03-08T05:22:24;38;32;22
58740;PMS7003;44512;53.046;18.604;2024-03-08T05:32:52;37;31;22
58740;PMS7003;44512;53.046;18.604;2024-03-08T05:43:21;41;33;23
58740;PMS7003;44512;53.046;18.604;2024-03-08T05:53:49;41;30;21
58740;PMS7003;44512;53.046;18.604;2024-03-08T06:04:18;39;34;23
58740;PMS7003;44512;53.046;18.604;2024-03-08T06:14:46;45;33;23
58740;PMS7003;44512;53.046;18.604;2024-03-08T06:25:15;40;33;22
58740;PMS7003;44512;53.046;18.604;2024-03-08T06:35:44;48;36;25
58740;PMS7003;44512;53.046;18.604;2024-03-08T06:46:12;53;38;27
58740;PMS7003;44512;53.046;18.604;2024-03-08T06:56:40;76;54;37
58740;PMS7003;44512;53.046;18.604;2024-03-08T07:07:09;87;64;41
58740;PMS7003;44512;53.046;18.604;2024-03-08T07:17:37;92;68;44
58740;PMS7003;44512;53.046;18.604;2024-03-08T07:28:06;95;68;42
58740;PMS7003;44512;53.046;18.604;2024-03-08T07:38:35;90;67;42
58740;PMS7003;44512;53.046;18.604;2024-03-08T07:49:03;90;65;42
58740;PMS7003;44512;53.046;18.604;2024-03-08T07:59:31;79;60;39
58740;PMS7003;44512;53.046;18.604;2024-03-08T08:10:00;78;61;39
58740;PMS7003;44512;53.046;18.604;2024-03-08T08:20:29;82;60;39
58740;PMS7003;44512;53.046;18.604;2024-03-08T08:30:57;70;54;36
58740;PMS7003;44512;53.046;18.604;2024-03-08T08:41:25;76;57;36
58740;PMS7003;44512;53.046;18.604;2024-03-08T08:51:54;72;55;35
58740;PMS7003;44512;53.046;18.604;2024-03-08T09:02:22;73;56;36
58740;PMS7003;44512;53.046;18.604;2024-03-08T09:12:51;69;52;33
58740;PMS7003;44512;53.046;18.604;2024-03-08T09:23:20;50;37;23
58740;PMS7003;44512;53.046;18.604;2024-03-08T09:33:48;50;38;26
58740;PMS7003;44512;53.046;18.604;2024-03-08T09:44:16;51;37;24
58740;PMS7003;44512;53.046;18.604;2024-03-08T09:54:45;49;31;24
58740;PMS7003;44512;53.046;18.604;2024-03-08T10:05:13;34;26;19
58740;PMS7003;44512;53.046;18.604;2024-03-08T10:15:42;37;31;22
58740;PMS7003;44512;53.046;18.604;2024-03-08T10:26:11;47;34;25
58740;PMS7003;44512;53.046;18.604;2024-03-08T10:36:39;46;35;24
58740;PMS7003;44512;53.046;18.604;2024-03-08T10:57:36;41;34;24
58740;PMS7003;44512;53.046;18.604;2024-03-08T11:13:23;40;31;21
58740;PMS7003;44512;53.046;18.604;2024-03-08T11:23:36;43;32;20
58740;PMS7003;44512;53.046;18.604;2024-03-08T11:34:04;36;28;20
58740;PMS7003;44512;53.046;18.604;2024-03-08T11:44:32;37;26;19
58740;PMS7003;44512;53.046;18.604;2024-03-08T11:55:01;32;25;18
58740;PMS7003;44512;53.046;18.604;2024-03-08T12:05:29;31;24;16
58740;PMS7003;44512;53.046;18.604;2024-03-08T12:15:58;25;19;15
58740;PMS7003;44512;53.046;18.604;2024-03-08T12:26:26;25;18;13
58740;PMS7003;44512;53.046;18.604;2024-03-08T12:36:54;24;20;15
58740;PMS7003;44512;53.046;18.604;2024-03-08T12:47:23;31;25;17
58740;PMS7003;44512;53.046;18.604;2024-03-08T12:57:51;29;24;18
58740;PMS7003;44512;53.046;18.604;2024-03-08T13:08:20;23;20;14
58740;PMS7003;44512;53.046;18.604;2024-03-08T13:18:48;19;18;12
58740;PMS7003;44512;53.046;18.604;2024-03-08T13:29:17;23;20;15
58740;PMS7003;44512;53.046;18.604;2024-03-08T13:39:45;30;23;15
58740;PMS7003;44512;53.046;18.604;2024-03-08T13:50:13;23;19;13
58740;PMS7003;44512;53.046;18.604;2024-03-08T14:00:42;25;19;14
58740;PMS7003;44512;53.046;18.604;2024-03-08T14:11:10;22;17;12
58740;PMS7003;44512;53.046;18.604;2024-03-08T14:21:39;20;18;13
58740;PMS7003;44512;53.046;18.604;2024-03-08T14:32:07;26;21;14
58740;PMS7003;44512;53.046;18.604;2024-03-08T14:42:35;24;19;13
58740;PMS7003;44512;53.046;18.604;2024-03-08T14:53:04;22;16;10
58740;PMS7003;44512;53.046;18.604;2024-03-08T15:03:34;20;17;13
58740;PMS7003;44512;53.046;18.604;2024-03-08T15:14:01;21;17;11
58740;PMS7003;44512;53.046;18.604;2024-03-08T15:24:29;20;15;11
58740;PMS7003;44512;53.046;18.604;2024-03-08T15:34:57;20;15;12
58740;PMS7003;44512;53.046;18.604;2024-03-08T15:45:26;16;15;11
58740;PMS7003;44512;53.046;18.604;2024-03-08T15:55:54;20;17;11
58740;PMS7003;44512;53.046;18.604;2024-03-08T16:06:23;19;13;10
58740;PMS7003;44512;53.046;18.604;2024-03-08T16:16:51;21;18;13
58740;PMS7003;44512;53.046;18.604;2024-03-08T16:27:19;20;15;12
58740;PMS7003;44512;53.046;18.604;2024-03-08T16:37:48;23;18;13
58740;PMS7003;44512;53.046;18.604;2024-03-08T16:48:16;17;15;13
58740;PMS7003;44512;53.046;18.604;2024-03-08T16:58:45;20;17;12
58740;PMS7003;44512;53.046;18.604;2024-03-08T17:09:13;25;20;13
58740;PMS7003;44512;53.046;18.604;2024-03-08T17:19:42;25;21;16
58740;PMS7003;44512;53.046;18.604;2024-03-08T17:30:10;30;23;16
58740;PMS7003;44512;53.046;18.604;2024-03-08T17:40:39;30;23;16
58740;PMS7003;44512;53.046;18.604;2024-03-08T17:51:07;34;23;17
58740;PMS7003;44512;53.046;18.604;2024-03-08T18:01:36;28;23;16
58740;PMS7003;44512;53.046;18.604;2024-03-08T18:12:04;32;24;17
58740;PMS7003;44512;53.046;18.604;2024-03-08T18:22:32;34;24;17
58740;PMS7003;44512;53.046;18.604;2024-03-08T18:33:00;37;29;21
58740;PMS7003;44512;53.046;18.604;2024-03-08T18:43:29;33;30;21
58740;PMS7003;44512;53.046;18.604;2024-03-08T18:53:57;41;32;21
58740;PMS7003;44512;53.046;18.604;2024-03-08T19:04:26;34;26;18
58740;PMS7003;44512;53.046;18.604;2024-03-08T19:14:54;42;31;22
58740;PMS7003;44512;53.046;18.604;2024-03-08T19:25:23;41;33;22
58740;PMS7003;44512;53.046;18.604;2024-03-08T19:35:51;48;34;23
58740;PMS7003;44512;53.046;18.604;2024-03-08T19:46:20;44;35;22
58740;PMS7003;44512;53.046;18.604;2024-03-08T19:56:48;44;34;22
58740;PMS7003;44512;53.046;18.604;2024-03-08T20:07:17;41;35;25
58740;PMS7003;44512;53.046;18.604;2024-03-08T20:17:45;38;34;24
58740;PMS7003;44512;53.046;18.604;2024-03-08T20:28:13;46;38;26
58740;PMS7003;44512;53.046;18.604;2024-03-08T20:38:42;52;36;23
58740;PMS7003;44512;53.046;18.604;2024-03-08T20:49:10;50;37;25
58740;PMS7003;44512;53.046;18.604;2024-03-08T20:59:39;56;40;27
58740;PMS7003;44512;53.046;18.604;2024-03-08T21:10:07;49;40;27
58740;PMS7003;44512;53.046;18.604;2024-03-08T21:20:36;52;35;25
58740;PMS7003;44512;53.046;18.604;2024-03-08T21:31:04;49;39;26
58740;PMS7003;44512;53.046;18.604;2024-03-08T21:41:33;53;40;26
58740;PMS7003;44512;53.046;18.604;2024-03-08T21:52:01;42;34;20
58740;PMS7003;44512;53.046;18.604;2024-03-08T22:02:30;43;32;22
58740;PMS7003;44512;53.046;18.604;2024-03-08T22:12:58;46;35;23
58740;PMS7003;44512;53.046;18.604;2024-03-08T22:23:27;38;31;21
58740;PMS7003;44512;53.046;18.604;2024-03-08T22:33:55;39;31;22
58740;PMS7003;44512;53.046;18.604;2024-03-08T22:44:24;41;33;21
58740;PMS7003;44512;53.046;18.604;2024-03-08T22:54:52;41;33;21
58740;PMS7003;44512;53.046;18.604;2024-03-08T23:05:21;38;29;18
58740;PMS7003;44512;53.046;18.604;2024-03-08T23:15:49;37;31;21
58740;PMS7003;44512;53.046;18.604;2024-03-08T23:26:17;42;31;23
58740;PMS7003;44512;53.046;18.604;2024-03-08T23:36:46;46;34;22
58740;PMS7003;44512;53.046;18.604;2024-03-08T23:47:14;30;20;14
58740;PMS7003;44512;53.046;18.604;2024-03-08T23:57:43;41;34;23
